Time;durP1;ratioP1;P1;durP2;ratioP2;P2;SDS_P1;SDS_P2;PMS_P1;PMS_P2;Temp;Humidity;BMP_temperature;BMP_pressure;BME280_temperature;BME280_humidity;BME280_pressure;Samples;Min_cycle;Max_cycle;Signal;HPM_P1;HPM_P2
2021/12/18 00:00:35;;;;;;;19.05;1.83;;;6.50;99.90;;;;;;5071653;28;20037;-46
2021/12/18 00:03:00;;;;;;;;;;;6.50;99.90;;;;;;5055183;28;20111;-47
2021/12/18 00:05:26;;;;;;;12.48;2.25;;;6.50;99.90;;;;;;5053368;28;20007;-47
2021/12/18 00:07:52;;;;;;;8.40;1.60;;;6.40;99.90;;;;;;5052713;28;20120;-47
2021/12/18 00:10:21;;;;;;;7.28;1.80;;;6.40;99.90;;;;;;5079667;28;20489;-46
2021/12/18 00:12:49;;;;;;;7.72;1.42;;;6.40;99.90;;;;;;5069141;28;20094;-48
2021/12/18 00:15:20;;;;;;;6.97;0.90;;;6.40;99.90;;;;;;5059275;28;20033;-48
2021/12/18 00:17:47;;;;;;;3.05;0.77;;;6.40;99.90;;;;;;5059271;28;20071;-46
2021/12/18 00:20:15;;;;;;;4.38;1.10;;;6.40;99.90;;;;;;5056605;28;20371;-46
2021/12/18 00:22:42;;;;;;;11.18;1.42;;;6.30;99.90;;;;;;5051966;28;20095;-47
2021/12/18 00:25:09;;;;;;;12.73;1.67;;;6.30;99.90;;;;;;5051762;28;20079;-46
2021/12/18 00:27:35;;;;;;;11.67;1.60;;;6.30;99.90;;;;;;5034210;28;20044;-46
2021/12/18 00:30:01;;;;;;;10.23;1.58;;;6.30;99.90;;;;;;5050158;28;20087;-47
2021/12/18 00:32:27;;;;;;;7.70;1.45;;;6.30;99.90;;;;;;5050243;28;20049;-47
2021/12/18 00:34:53;;;;;;;5.53;1.40;;;6.30;99.90;;;;;;5051261;28;20536;-48
2021/12/18 00:37:19;;;;;;;8.02;1.58;;;6.30;99.90;;;;;;5059719;28;20041;-48
2021/12/18 00:39:55;;;;;;;5.68;1.30;;;6.30;99.90;;;;;;5070446;28;20166;-49
2021/12/18 00:42:37;;;;;;;5.43;1.38;;;6.30;99.90;;;;;;5066052;28;20435;-46
2021/12/18 00:45:12;;;;;;;6.43;1.40;;;6.40;99.90;;;;;;5044673;28;20028;-47
2021/12/18 00:47:39;;;;;;;8.35;1.50;;;6.40;99.90;;;;;;5060680;28;20048;-48
2021/12/18 00:50:08;;;;;;;4.78;1.40;;;6.40;99.90;;;;;;5051085;28;20048;-47
2021/12/18 00:52:34;;;;;;;6.18;1.45;;;6.30;99.90;;;;;;5053429;28;20060;-46
2021/12/18 00:55:04;;;;;;;8.75;1.70;;;6.40;99.90;;;;;;5049753;28;20048;-48
2021/12/18 00:57:30;;;;;;;6.88;1.33;;;6.30;99.90;;;;;;5033307;28;20061;-46
2021/12/18 01:00:00;;;;;;;9.63;1.65;;;6.30;99.90;;;;;;5053855;28;20121;-46
2021/12/18 01:02:28;;;;;;;9.23;1.83;;;6.30;99.90;;;;;;5051515;28;20055;-47
2021/12/18 01:04:54;;;;;;;8.55;1.45;;;6.30;99.90;;;;;;5053495;28;20414;-47
2021/12/18 01:07:21;;;;;;;10.60;1.85;;;6.30;99.90;;;;;;5059324;28;20481;-46
2021/12/18 01:12:13;;;;;;;15.57;2.30;;;6.20;99.90;;;;;;5049256;28;20068;-47
2021/12/18 01:25:05;;;;;;;20.95;3.90;;;6.20;99.90;;;;;;5059640;28;20387;-48
2021/12/18 01:27:32;;;;;;;52.70;4.95;;;6.30;99.90;;;;;;5063663;28;20094;-46
2021/12/18 01:29:58;;;;;;;49.45;5.47;;;6.20;99.90;;;;;;5037891;28;20040;-49
2021/12/18 01:32:26;;;;;;;37.30;5.60;;;6.30;99.90;;;;;;5053999;28;20056;-46
2021/12/18 01:34:52;;;;;;;38.10;5.05;;;6.30;99.90;;;;;;5032600;28;20049;-46
2021/12/18 01:37:20;;;;;;;10.57;2.20;;;6.30;99.90;;;;;;5049005;28;20045;-47
2021/12/18 01:39:46;;;;;;;12.75;2.00;;;6.30;99.90;;;;;;5032069;28;20059;-47
2021/12/18 01:52:41;;;;;;;21.35;2.92;;;6.30;99.90;;;;;;5050529;28;20495;-50
2021/12/18 01:55:09;;;;;;;19.30;3.20;;;6.20;99.90;;;;;;5059656;28;20041;-50
2021/12/18 01:57:36;;;;;;;14.93;2.67;;;6.30;99.90;;;;;;5062281;28;20056;-49
2021/12/18 02:00:31;;;;;;;10.73;2.25;;;6.30;99.90;;;;;;5050300;28;20049;-47
2021/12/18 02:02:57;;;;;;;13.75;2.33;;;6.30;99.90;;;;;;5049720;28;20060;-47
2021/12/18 02:05:23;;;;;;;8.03;1.43;;;6.30;99.90;;;;;;5033896;28;20055;-47
2021/12/18 02:07:49;;;;;;;8.38;1.45;;;6.30;99.90;;;;;;5056627;28;20338;-47
2021/12/18 02:10:19;;;;;;;10.88;1.38;;;6.30;99.90;;;;;;5070347;28;20109;-47
2021/12/18 02:20:47;;;;;;;10.25;1.70;;;6.30;99.90;;;;;;5068918;28;20128;-49
2021/12/18 02:23:14;;;;;;;7.72;1.63;;;6.30;99.90;;;;;;5070126;28;20482;-47
2021/12/18 02:25:41;;;;;;;6.90;1.20;;;6.30;99.90;;;;;;5048697;28;20051;-48
2021/12/18 02:28:14;;;;;;;7.57;1.60;;;6.30;99.90;;;;;;5063671;28;20615;-48
2021/12/18 02:30:41;;;;;;;11.88;1.92;;;6.30;99.90;;;;;;5056185;28;20135;-47
2021/12/18 02:33:07;;;;;;;9.05;1.60;;;6.30;99.90;;;;;;5055062;28;20068;-46
2021/12/18 02:35:40;;;;;;;5.20;1.30;;;6.30;99.90;;;;;;5044817;28;20080;-48
2021/12/18 02:38:17;;;;;;;5.85;1.25;;;6.30;99.90;;;;;;5050120;28;20443;-47
2021/12/18 02:41:11;;;;;;;4.35;1.25;;;6.30;99.90;;;;;;5058571;28;20063;-47
2021/12/18 02:43:35;;;;;;;8.60;1.70;;;6.30;99.90;;;;;;5056962;28;20037;-47
2021/12/18 02:46:07;;;;;;;6.13;1.42;;;6.30;99.90;;;;;;5067889;28;20040;-47
2021/12/18 02:48:38;;;;;;;5.55;1.40;;;6.30;99.90;;;;;;5055739;28;20394;-50
2021/12/18 02:51:09;;;;;;;7.90;1.70;;;6.30;99.90;;;;;;5069458;28;20044;-51
2021/12/18 02:53:37;;;;;;;6.97;1.40;;;6.30;99.90;;;;;;5073506;28;20402;-47
2021/12/18 02:56:04;;;;;;;;;;;6.40;99.90;;;;;;5072261;28;20097;-50
2021/12/18 02:58:35;;;;;;;3.95;0.95;;;6.40;99.90;;;;;;5073554;28;19920;-46
2021/12/18 03:01:01;;;;;;;4.85;0.98;;;6.30;99.90;;;;;;5071421;28;20466;-48
2021/12/18 03:03:31;;;;;;;5.07;1.00;;;6.30;99.90;;;;;;5055301;28;20036;-50
2021/12/18 03:06:21;;;;;;;5.80;1.20;;;6.50;99.90;;;;;;5060449;28;20044;-49
2021/12/18 03:25:24;;;;;;;1.88;0.65;;;6.40;99.90;;;;;;5032038;28;20073;-46
2021/12/18 03:27:51;;;;;;;1.08;0.40;;;6.40;99.90;;;;;;5043973;28;20419;-47
2021/12/18 03:30:18;;;;;;;1.13;0.40;;;6.50;99.90;;;;;;5067415;28;20474;-47
2021/12/18 03:32:45;;;;;;;3.30;0.77;;;6.50;99.90;;;;;;5072527;28;20183;-48
2021/12/18 03:35:13;;;;;;;2.00;0.68;;;6.50;99.90;;;;;;5054540;28;20048;-47
2021/12/18 03:37:39;;;;;;;4.97;0.98;;;6.50;99.90;;;;;;5063050;28;20436;-48
2021/12/18 03:40:09;;;;;;;3.35;0.70;;;6.50;99.90;;;;;;5069071;28;20059;-48
2021/12/18 03:42:35;;;;;;;3.63;0.95;;;6.50;99.90;;;;;;5070110;28;20490;-49
2021/12/18 03:45:01;;;;;;;4.05;1.00;;;6.50;99.90;;;;;;5069035;28;20041;-47
2021/12/18 03:47:28;;;;;;;2.20;1.10;;;6.50;99.90;;;;;;5066977;28;20109;-46
2021/12/18 03:49:54;;;;;;;4.55;0.85;;;6.50;99.90;;;;;;5072301;28;20050;-49
2021/12/18 03:52:20;;;;;;;3.33;0.90;;;6.50;99.90;;;;;;5070909;28;20119;-46
2021/12/18 03:54:46;;;;;;;5.53;1.05;;;6.50;99.90;;;;;;5070479;28;20155;-47
2021/12/18 03:57:13;;;;;;;4.75;1.00;;;6.50;99.90;;;;;;5069137;28;20048;-48
2021/12/18 03:59:40;;;;;;;2.63;0.80;;;6.50;99.90;;;;;;5067307;28;20039;-46
2021/12/18 04:02:06;;;;;;;3.42;1.08;;;6.60;99.90;;;;;;5067813;28;20070;-47
2021/12/18 04:04:32;;;;;;;5.20;1.30;;;6.60;99.90;;;;;;5055863;28;20219;-50
2021/12/18 04:07:00;;;;;;;3.38;1.02;;;6.60;99.90;;;;;;5046849;28;20049;-47
2021/12/18 04:09:28;;;;;;;4.83;1.30;;;6.60;99.90;;;;;;5065189;28;20064;-47
2021/12/18 04:11:54;;;;;;;4.55;1.33;;;6.60;99.90;;;;;;5068251;28;20052;-49
2021/12/18 04:14:21;;;;;;;6.20;1.67;;;6.60;99.90;;;;;;5057640;28;20127;-48
2021/12/18 04:16:47;;;;;;;4.85;1.52;;;6.60;99.90;;;;;;5070338;28;20043;-50
2021/12/18 04:19:13;;;;;;;6.35;1.50;;;6.60;99.90;;;;;;5063207;28;20037;-48
2021/12/18 04:21:39;;;;;;;8.10;1.88;;;6.90;99.90;;;;;;5058510;28;20067;-48
2021/12/18 04:24:05;;;;;;;6.15;1.88;;;6.60;99.90;;;;;;5060258;28;20063;-50
2021/12/18 04:26:32;;;;;;;5.63;1.70;;;6.60;99.90;;;;;;5040093;28;20048;-48
2021/12/18 04:28:59;;;;;;;10.20;2.10;;;6.70;99.90;;;;;;5051857;28;20084;-47
2021/12/18 04:31:26;;;;;;;8.52;2.10;;;6.70;99.90;;;;;;5054185;28;20052;-46
2021/12/18 04:33:52;;;;;;;8.20;2.45;;;6.70;99.90;;;;;;5050531;28;20045;-47
2021/12/18 04:36:19;;;;;;;7.43;2.33;;;6.70;99.90;;;;;;5052522;28;20041;-47
2021/12/18 04:38:48;;;;;;;9.95;2.75;;;6.70;99.90;;;;;;5048568;28;20128;-47
2021/12/18 04:41:21;;;;;;;10.32;2.75;;;6.70;99.90;;;;;;5048125;28;20048;-51
2021/12/18 04:43:47;;;;;;;7.90;2.90;;;6.80;99.90;;;;;;5058841;28;20047;-50
2021/12/18 04:46:13;;;;;;;11.07;3.42;;;6.70;99.90;;;;;;5055669;28;20052;-49
2021/12/18 04:48:39;;;;;;;9.30;3.03;;;6.80;99.90;;;;;;5049154;28;20040;-48
2021/12/18 04:51:04;;;;;;;12.15;3.40;;;6.80;99.90;;;;;;5049767;28;20075;-48
2021/12/18 04:53:30;;;;;;;13.43;3.63;;;6.80;99.90;;;;;;5051678;28;20113;-51
2021/12/18 04:55:56;;;;;;;14.38;3.75;;;6.80;99.90;;;;;;5056314;28;20029;-49
2021/12/18 04:58:22;;;;;;;19.95;4.22;;;6.80;99.90;;;;;;5032927;28;20041;-47
2021/12/18 05:00:49;;;;;;;14.10;4.53;;;6.80;99.90;;;;;;5034512;28;20426;-47
2021/12/18 05:03:17;;;;;;;11.27;3.95;;;6.80;99.90;;;;;;5051049;28;20116;-47
2021/12/18 05:05:44;;;;;;;18.77;4.93;;;6.90;99.90;;;;;;5064340;28;20040;-47
2021/12/18 05:08:11;;;;;;;19.40;5.03;;;6.90;99.90;;;;;;5049430;28;20064;-47
2021/12/18 05:10:37;;;;;;;21.58;4.70;;;6.90;99.90;;;;;;5066899;28;20490;-47
2021/12/18 05:13:03;;;;;;;23.73;5.47;;;6.90;99.90;;;;;;5050926;28;20353;-47
2021/12/18 05:15:29;;;;;;;14.18;4.43;;;6.90;99.90;;;;;;5059474;28;20051;-47
2021/12/18 05:17:57;;;;;;;15.05;5.18;;;6.90;99.90;;;;;;5060299;28;20056;-47
2021/12/18 05:20:24;;;;;;;24.63;5.57;;;6.90;99.90;;;;;;5060077;28;20471;-48
2021/12/18 05:22:51;;;;;;;23.05;5.85;;;6.90;99.90;;;;;;5049084;28;20068;-46
2021/12/18 05:25:16;;;;;;;19.95;6.45;;;6.90;99.90;;;;;;5049911;28;20029;-46
2021/12/18 05:27:42;;;;;;;19.75;5.65;;;7.00;99.90;;;;;;5056568;28;20041;-47
2021/12/18 05:30:10;;;;;;;17.90;6.10;;;7.00;99.90;;;;;;5062016;28;20128;-48
2021/12/18 05:32:37;;;;;;;26.67;6.13;;;7.00;99.90;;;;;;5032127;28;20073;-47
2021/12/18 05:35:05;;;;;;;15.80;5.60;;;7.00;99.90;;;;;;5054065;28;20131;-47
2021/12/18 05:37:51;;;;;;;22.40;6.60;;;7.00;99.90;;;;;;5051411;28;20100;-48
2021/12/18 05:40:20;;;;;;;19.63;5.18;;;7.00;99.90;;;;;;5018342;28;20049;-47
2021/12/18 05:42:48;;;;;;;22.73;5.97;;;7.10;99.90;;;;;;5061524;28;20045;-47
2021/12/18 05:45:13;;;;;;;18.63;5.10;;;7.10;99.90;;;;;;5062623;28;20494;-46
2021/12/18 05:47:43;;;;;;;17.42;4.93;;;7.10;99.90;;;;;;5054097;28;20054;-46
2021/12/18 05:50:10;;;;;;;18.25;5.03;;;7.20;99.90;;;;;;5049622;28;20041;-46
2021/12/18 05:52:36;;;;;;;;;;;7.20;99.90;;;;;;5058299;28;20509;-49
2021/12/18 05:55:02;;;;;;;20.42;5.35;;;7.20;99.90;;;;;;5055065;28;19917;-47
2021/12/18 05:57:28;;;;;;;16.50;5.13;;;7.20;99.90;;;;;;5049189;28;20041;-46
2021/12/18 05:59:54;;;;;;;23.65;5.32;;;7.30;99.90;;;;;;5039358;28;20052;-48
2021/12/18 06:02:19;;;;;;;21.23;4.90;;;7.20;99.90;;;;;;5054364;28;20075;-47
2021/12/18 06:04:46;;;;;;;18.42;5.28;;;7.20;99.90;;;;;;5061722;28;20041;-49
2021/12/18 06:07:29;;;;;;;16.15;5.32;;;7.30;99.90;;;;;;5063688;28;20053;-49
2021/12/18 06:10:00;;;;;;;23.77;4.63;;;7.30;99.90;;;;;;5058612;28;20051;-46
2021/12/18 06:12:26;;;;;;;15.52;4.50;;;7.30;99.90;;;;;;5031645;28;20152;-47
2021/12/18 06:14:53;;;;;;;16.98;3.97;;;7.30;99.90;;;;;;5065054;28;20116;-46
2021/12/18 06:17:37;;;;;;;16.98;4.43;;;7.40;99.90;;;;;;5063603;28;20049;-47
2021/12/18 06:20:04;;;;;;;18.40;3.80;;;7.40;99.90;;;;;;5049771;28;20049;-45
2021/12/18 06:22:30;;;;;;;11.40;3.70;;;7.50;99.90;;;;;;5068702;28;20053;-46
2021/12/18 06:24:56;;;;;;;14.85;3.53;;;7.50;99.90;;;;;;5049429;28;20045;-47
2021/12/18 06:27:21;;;;;;;12.93;4.22;;;7.50;99.90;;;;;;5051748;28;20098;-46
2021/12/18 06:29:48;;;;;;;14.60;3.58;;;7.50;99.90;;;;;;5066238;28;20102;-48
2021/12/18 06:32:13;;;;;;;10.50;3.67;;;7.50;99.90;;;;;;5065936;28;20057;-46
2021/12/18 06:34:39;;;;;;;10.93;3.63;;;7.50;99.90;;;;;;5051991;28;20556;-46
2021/12/18 06:37:05;;;;;;;16.40;3.80;;;7.50;99.90;;;;;;5051574;28;20136;-46
2021/12/18 06:39:31;;;;;;;13.52;3.97;;;7.50;99.90;;;;;;5052102;28;20051;-46
2021/12/18 06:41:57;;;;;;;11.23;3.97;;;7.50;99.90;;;;;;5072369;28;20040;-45
2021/12/18 06:44:23;;;;;;;19.30;5.47;;;7.50;99.90;;;;;;5073036;28;20124;-46
2021/12/18 06:46:49;;;;;;;11.43;4.20;;;7.50;99.90;;;;;;5072899;28;20051;-47
2021/12/18 06:49:15;;;;;;;14.23;3.80;;;7.50;99.90;;;;;;5071362;28;20413;-46
2021/12/18 06:51:42;;;;;;;16.88;4.25;;;7.50;99.90;;;;;;5058580;28;20120;-46
2021/12/18 06:54:08;;;;;;;10.10;4.07;;;7.50;99.90;;;;;;5054495;28;20544;-46
2021/12/18 06:56:34;;;;;;;14.85;3.78;;;7.50;99.90;;;;;;5057817;28;20048;-46
2021/12/18 06:58:59;;;;;;;12.02;3.40;;;7.60;99.90;;;;;;5073048;28;20048;-46
2021/12/18 07:01:25;;;;;;;13.52;3.30;;;7.60;99.90;;;;;;5058086;28;20067;-46
2021/12/18 07:03:51;;;;;;;13.23;4.40;;;7.60;99.90;;;;;;5072844;28;20075;-46
2021/12/18 07:06:17;;;;;;;13.30;3.53;;;7.60;99.90;;;;;;5065929;28;20076;-46
2021/12/18 07:08:43;;;;;;;14.77;3.08;;;7.70;99.90;;;;;;5053486;28;20103;-47
2021/12/18 07:11:09;;;;;;;8.57;2.78;;;7.70;99.90;;;;;;5070890;28;20075;-47
2021/12/18 07:13:35;;;;;;;13.25;2.70;;;7.70;99.90;;;;;;5071660;28;20084;-46
2021/12/18 07:16:06;;;;;;;14.98;2.75;;;7.70;99.90;;;;;;5070398;28;20040;-46
2021/12/18 07:18:33;;;;;;;13.52;3.78;;;7.70;99.90;;;;;;5071541;28;20047;-46
2021/12/18 07:20:59;;;;;;;11.52;3.35;;;7.70;99.90;;;;;;5072608;28;20048;-47
2021/12/18 07:23:25;;;;;;;8.75;3.03;;;7.70;99.90;;;;;;5058107;28;20098;-46
2021/12/18 07:25:51;;;;;;;10.25;3.00;;;7.70;99.90;;;;;;5072594;28;20036;-45
2021/12/18 07:28:17;;;;;;;15.75;3.10;;;7.70;99.90;;;;;;5059364;28;20643;-47
2021/12/18 07:30:43;;;;;;;11.88;2.90;;;7.70;99.90;;;;;;5067375;28;20037;-46
2021/12/18 07:33:11;;;;;;;10.15;2.72;;;7.70;99.90;;;;;;5064531;28;20156;-49
2021/12/18 07:35:38;;;;;;;10.05;3.08;;;7.70;99.90;;;;;;5067519;28;20056;-45
2021/12/18 07:38:04;;;;;;;;;;;7.80;99.90;;;;;;5064172;28;20044;-46
2021/12/18 07:40:32;;;;;;;8.68;2.58;;;7.80;99.90;;;;;;5070321;28;20400;-46
2021/12/18 07:42:57;;;;;;;10.48;3.17;;;7.70;99.90;;;;;;5048662;28;20047;-45
2021/12/18 07:45:24;;;;;;;10.82;3.00;;;7.80;99.90;;;;;;5071218;28;20045;-46
2021/12/18 07:47:50;;;;;;;10.55;3.45;;;7.80;99.90;;;;;;5070092;28;20040;-46
2021/12/18 07:50:20;;;;;;;10.05;2.55;;;7.80;99.90;;;;;;5067352;28;20048;-47
2021/12/18 07:52:49;;;;;;;8.30;2.90;;;8.00;99.90;;;;;;5069808;28;20321;-45
2021/12/18 07:55:16;;;;;;;11.07;2.92;;;7.90;99.90;;;;;;5067209;28;20644;-47
2021/12/18 07:57:43;;;;;;;9.45;3.10;;;8.00;99.90;;;;;;5070844;28;20045;-46
2021/12/18 08:00:12;;;;;;;5.60;2.42;;;8.10;99.90;;;;;;5049531;28;20032;-46
2021/12/18 08:02:39;;;;;;;10.98;2.75;;;8.00;99.90;;;;;;5066745;28;20053;-45
2021/12/18 08:05:05;;;;;;;13.68;2.72;;;8.00;99.90;;;;;;5065228;28;20508;-46
2021/12/18 08:07:31;;;;;;;11.65;2.60;;;7.90;99.90;;;;;;5047454;28;20139;-46
2021/12/18 08:09:57;;;;;;;12.95;3.00;;;8.00;99.90;;;;;;5052699;28;20052;-45
2021/12/18 08:12:23;;;;;;;8.00;3.22;;;8.00;99.90;;;;;;5063495;28;20174;-45
2021/12/18 08:14:49;;;;;;;7.90;3.22;;;7.90;99.90;;;;;;5064254;28;20124;-46
2021/12/18 08:17:15;;;;;;;8.98;2.70;;;8.00;99.90;;;;;;5047983;28;20043;-47
2021/12/18 08:19:41;;;;;;;12.73;2.47;;;8.00;99.90;;;;;;5064416;28;20040;-46
2021/12/18 08:22:07;;;;;;;15.57;2.28;;;8.00;99.90;;;;;;5066452;28;20582;-47
2021/12/18 08:24:33;;;;;;;13.35;2.10;;;7.90;99.90;;;;;;5067835;28;20067;-46
2021/12/18 08:26:59;;;;;;;14.50;2.85;;;7.90;99.90;;;;;;5068630;28;20115;-47
2021/12/18 08:29:25;;;;;;;4.22;1.83;;;7.90;99.90;;;;;;5065355;28;20036;-46
2021/12/18 08:31:54;;;;;;;9.73;2.55;;;7.90;99.90;;;;;;5028705;28;20145;-45
2021/12/18 08:34:21;;;;;;;11.30;2.63;;;7.90;99.90;;;;;;5050308;28;20147;-48
2021/12/18 08:36:48;;;;;;;10.07;2.00;;;7.90;99.90;;;;;;5067938;28;20041;-46
2021/12/18 08:39:14;;;;;;;7.15;2.00;;;7.90;99.90;;;;;;5068642;28;20370;-46
2021/12/18 08:41:42;;;;;;;8.20;2.10;;;7.90;99.90;;;;;;5046366;28;20474;-46
2021/12/18 08:44:08;;;;;;;11.23;2.35;;;7.90;99.90;;;;;;5059871;28;20041;-46
2021/12/18 08:46:35;;;;;;;8.13;2.20;;;7.90;99.90;;;;;;5061770;28;20049;-47
2021/12/18 08:49:02;;;;;;;8.55;2.08;;;7.90;99.90;;;;;;5056698;28;20041;-48
2021/12/18 08:51:28;;;;;;;9.55;2.30;;;7.90;99.90;;;;;;5054679;28;20498;-46
2021/12/18 08:53:54;;;;;;;10.48;2.15;;;8.00;99.90;;;;;;5054833;28;20079;-47
2021/12/18 08:56:20;;;;;;;13.10;2.67;;;8.00;99.90;;;;;;5031429;28;20374;-46
2021/12/18 08:58:46;;;;;;;12.23;2.45;;;8.00;99.90;;;;;;5049441;28;20071;-46
2021/12/18 09:01:13;;;;;;;9.85;2.28;;;8.00;99.90;;;;;;5049250;28;20110;-47
2021/12/18 09:03:38;;;;;;;7.13;2.47;;;8.00;99.90;;;;;;5049930;28;20060;-46
2021/12/18 09:06:04;;;;;;;13.63;3.30;;;8.00;99.90;;;;;;5052795;28;20769;-47
2021/12/18 09:08:30;;;;;;;11.60;3.03;;;8.00;99.90;;;;;;5049248;28;20065;-47
2021/12/18 09:10:56;;;;;;;7.32;1.95;;;8.10;99.90;;;;;;5049341;28;20049;-49
2021/12/18 09:13:24;;;;;;;10.43;2.97;;;8.10;99.90;;;;;;5058239;28;20045;-46
2021/12/18 09:15:49;;;;;;;8.90;2.20;;;8.10;99.90;;;;;;5083831;28;20448;-47
2021/12/18 09:18:15;;;;;;;11.73;2.70;;;8.10;99.90;;;;;;5080420;28;20079;-45
2021/12/18 09:20:44;;;;;;;9.90;2.50;;;8.10;99.90;;;;;;5033203;28;20083;-48
2021/12/18 09:23:13;;;;;;;14.18;2.58;;;8.10;99.90;;;;;;5053179;28;20041;-46
2021/12/18 09:25:38;;;;;;;14.00;2.70;;;8.10;99.90;;;;;;5058485;28;20123;-46
2021/12/18 09:28:05;;;;;;;10.98;2.67;;;8.10;99.90;;;;;;5071092;28;20115;-49
2021/12/18 09:30:31;;;;;;;14.93;3.60;;;8.20;99.90;;;;;;5032767;28;20041;-46
2021/12/18 09:32:58;;;;;;;14.13;2.42;;;8.20;99.90;;;;;;5049403;28;20048;-48
2021/12/18 09:35:24;;;;;;;15.15;3.72;;;8.20;99.90;;;;;;5050671;28;20425;-46
2021/12/18 09:37:49;;;;;;;11.07;3.78;;;8.20;99.90;;;;;;5050590;28;20045;-49
2021/12/18 09:40:18;;;;;;;15.27;3.80;;;8.20;99.90;;;;;;5049001;28;20055;-46
2021/12/18 09:42:44;;;;;;;9.55;3.78;;;8.20;99.90;;;;;;5048963;28;20124;-46
2021/12/18 09:45:11;;;;;;;17.42;3.28;;;8.20;99.90;;;;;;5035711;28;20037;-45
2021/12/18 09:47:38;;;;;;;14.77;3.83;;;8.20;99.90;;;;;;5039526;28;20483;-46
2021/12/18 09:50:04;;;;;;;;;;;8.20;99.90;;;;;;5049522;28;20043;-46
2021/12/18 09:52:31;;;;;;;13.02;3.35;;;8.20;99.90;;;;;;5052096;28;19963;-46
2021/12/18 09:54:58;;;;;;;10.50;3.17;;;8.30;99.90;;;;;;5055790;28;20053;-46
2021/12/18 09:57:24;;;;;;;10.77;3.00;;;8.20;99.90;;;;;;5047892;28;20102;-46
2021/12/18 09:59:51;;;;;;;10.50;3.08;;;8.30;99.90;;;;;;5050024;28;20088;-46
2021/12/18 10:02:17;;;;;;;11.30;4.23;;;8.50;99.90;;;;;;5062717;28;20048;-48
2021/12/18 10:04:44;;;;;;;9.68;4.03;;;8.50;99.90;;;;;;5066338;28;20047;-46
2021/12/18 10:07:15;;;;;;;9.93;3.50;;;8.60;99.90;;;;;;5050809;28;20087;-46
2021/12/18 10:09:41;;;;;;;11.68;4.05;;;8.50;99.90;;;;;;5056318;28;20648;-49
2021/12/18 10:12:17;;;;;;;10.93;3.38;;;8.50;99.90;;;;;;5038524;28;20092;-47
2021/12/18 10:14:59;;;;;;;9.63;3.08;;;8.50;99.90;;;;;;5052166;28;20501;-46
2021/12/18 10:17:30;;;;;;;8.82;3.40;;;8.50;99.90;;;;;;5063019;28;20048;-47
2021/12/18 10:20:21;;;;;;;8.07;3.53;;;8.60;99.90;;;;;;5066404;28;20498;-48
2021/12/18 10:22:52;;;;;;;9.35;3.50;;;8.50;99.90;;;;;;5090918;28;20041;-46
2021/12/18 10:25:24;;;;;;;10.10;3.65;;;8.50;99.90;;;;;;5060569;28;20029;-49
2021/12/18 10:27:57;;;;;;;12.55;3.03;;;8.60;99.90;;;;;;5065731;28;20044;-47
2021/12/18 10:30:23;;;;;;;9.93;3.08;;;8.40;99.90;;;;;;5066665;28;20040;-47
2021/12/18 10:32:55;;;;;;;12.93;3.00;;;8.40;99.90;;;;;;5051858;28;20052;-48
2021/12/18 10:35:21;;;;;;;19.25;3.72;;;8.50;99.90;;;;;;5061384;28;20045;-48
2021/12/18 10:37:47;;;;;;;9.18;2.80;;;8.50;99.90;;;;;;5061004;28;20498;-46
2021/12/18 10:40:14;;;;;;;13.43;3.33;;;8.50;99.90;;;;;;5051558;28;20079;-48
2021/12/18 10:42:46;;;;;;;8.15;2.95;;;8.50;99.90;;;;;;5067794;28;20045;-47
2021/12/18 10:45:25;;;;;;;8.05;3.20;;;8.50;99.90;;;;;;5068728;28;20028;-48
2021/12/18 10:47:56;;;;;;;11.07;3.28;;;8.50;99.90;;;;;;5065540;28;20056;-48
2021/12/18 10:50:41;;;;;;;16.55;3.40;;;8.50;99.90;;;;;;5069347;28;20037;-47
2021/12/18 10:53:14;;;;;;;8.65;3.28;;;8.50;99.90;;;;;;5096139;28;20496;-47
2021/12/18 10:55:41;;;;;;;7.93;2.63;;;8.40;99.90;;;;;;5066466;28;20050;-50
2021/12/18 10:58:10;;;;;;;6.95;2.15;;;8.50;99.90;;;;;;5066097;28;20107;-49
2021/12/18 11:00:43;;;;;;;10.00;2.83;;;8.50;99.90;;;;;;5050000;28;20044;-49
2021/12/18 11:03:14;;;;;;;11.10;2.60;;;8.50;99.90;;;;;;5068589;28;20536;-48
2021/12/18 11:05:40;;;;;;;7.97;2.30;;;8.50;99.90;;;;;;5062881;28;20047;-47
2021/12/18 11:08:08;;;;;;;7.30;1.85;;;8.50;99.90;;;;;;5067016;28;20490;-48
2021/12/18 11:10:43;;;;;;;7.80;1.98;;;8.50;99.90;;;;;;5064903;28;20051;-48
2021/12/18 11:15:56;;;;;;;6.05;2.00;;;8.60;99.90;;;;;;5070113;28;20443;-46
2021/12/18 11:18:22;;;;;;;6.65;1.55;;;8.60;99.90;;;;;;5072196;28;20747;-47
2021/12/18 11:20:51;;;;;;;8.63;2.55;;;8.60;99.90;;;;;;5070866;28;20294;-47
2021/12/18 11:23:25;;;;;;;7.55;2.35;;;8.60;99.90;;;;;;5068997;28;20536;-46
2021/12/18 11:25:52;;;;;;;8.55;2.50;;;8.60;99.90;;;;;;5070347;28;20056;-47
2021/12/18 11:28:19;;;;;;;10.45;3.33;;;8.60;99.90;;;;;;5069578;28;20058;-51
2021/12/18 11:30:49;;;;;;;;;;;8.60;99.90;;;;;;5068395;28;20099;-47
2021/12/18 11:33:16;;;;;;;9.10;2.13;;;8.60;99.90;;;;;;5070278;28;19916;-48
2021/12/18 11:35:42;;;;;;;9.52;2.10;;;9.00;99.90;;;;;;5056776;28;20073;-48
2021/12/18 11:38:12;;;;;;;9.57;2.37;;;8.60;99.90;;;;;;5066890;28;20052;-47
2021/12/18 11:40:39;;;;;;;6.72;2.15;;;8.70;99.90;;;;;;5045422;28;20053;-47
2021/12/18 11:43:07;;;;;;;8.82;1.92;;;8.70;99.90;;;;;;5069138;28;20123;-47
2021/12/18 11:45:35;;;;;;;5.55;2.10;;;8.70;99.90;;;;;;5070925;28;20047;-47
2021/12/18 11:48:04;;;;;;;8.93;2.60;;;8.70;99.90;;;;;;5070220;28;20044;-48
2021/12/18 11:50:34;;;;;;;10.40;2.45;;;8.70;99.90;;;;;;5104701;28;20040;-47
2021/12/18 11:53:16;;;;;;;8.13;2.40;;;8.70;99.90;;;;;;5049337;28;20076;-50
2021/12/18 11:55:48;;;;;;;8.55;2.83;;;8.70;99.90;;;;;;5065654;28;20143;-47
2021/12/18 11:58:17;;;;;;;8.35;2.70;;;8.70;99.90;;;;;;5052521;28;20079;-47
2021/12/18 12:00:47;;;;;;;9.40;2.85;;;8.70;99.90;;;;;;5034294;28;20094;-48
2021/12/18 12:03:36;;;;;;;11.55;2.63;;;8.70;99.90;;;;;;5034031;28;20037;-46
2021/12/18 12:06:30;;;;;;;8.90;2.50;;;8.70;99.90;;;;;;5053868;28;20075;-48
2021/12/18 12:11:58;;;;;;;15.70;3.05;;;8.70;99.90;;;;;;5052315;28;20131;-49
2021/12/18 12:14:27;;;;;;;6.82;2.78;;;8.60;99.90;;;;;;5058147;28;20488;-48
2021/12/18 12:17:17;;;;;;;12.52;2.83;;;8.60;99.90;;;;;;5071360;28;20131;-48
2021/12/18 12:19:50;;;;;;;9.60;2.70;;;8.60;99.90;;;;;;5052124;28;20478;-47
2021/12/18 12:22:47;;;;;;;14.20;3.22;;;8.60;99.90;;;;;;5050846;28;20049;-47
2021/12/18 12:25:18;;;;;;;5.45;2.45;;;8.70;99.90;;;;;;5052515;28;20059;-48
2021/12/18 12:27:59;;;;;;;11.15;3.20;;;8.60;99.90;;;;;;5084731;28;20106;-47
2021/12/18 12:30:30;;;;;;;9.50;2.53;;;8.60;99.90;;;;;;5063731;28;20169;-47
2021/12/18 12:33:04;;;;;;;7.38;3.45;;;8.60;99.90;;;;;;5052046;28;20075;-48
2021/12/18 12:35:52;;;;;;;11.30;2.90;;;8.60;99.90;;;;;;5051080;28;20041;-49
2021/12/18 12:38:36;;;;;;;7.00;2.75;;;8.60;99.90;;;;;;5051554;28;20051;-47
2021/12/18 12:41:59;;;;;;;11.38;2.90;;;8.60;99.90;;;;;;5050164;28;20123;-52
2021/12/18 12:44:29;;;;;;;13.55;3.03;;;8.70;99.90;;;;;;5050681;28;20049;-46
2021/12/18 12:47:15;;;;;;;9.68;3.10;;;8.60;99.90;;;;;;5063144;28;20056;-49
2021/12/18 12:49:44;;;;;;;12.45;2.83;;;8.70;99.90;;;;;;5051351;28;20056;-48
2021/12/18 12:52:12;;;;;;;10.05;2.80;;;8.70;99.90;;;;;;5040968;28;20047;-47
2021/12/18 12:54:46;;;;;;;10.52;2.97;;;8.70;99.90;;;;;;5052365;28;20474;-48
2021/12/18 12:57:24;;;;;;;16.23;3.08;;;8.60;99.90;;;;;;5033789;28;20399;-48
2021/12/18 12:59:53;;;;;;;12.40;2.65;;;8.60;99.90;;;;;;5051572;28;20064;-50
2021/12/18 13:02:20;;;;;;;8.13;2.75;;;8.60;99.90;;;;;;5051103;28;20113;-49
2021/12/18 13:04:47;;;;;;;10.02;2.67;;;8.60;99.90;;;;;;5032179;28;20044;-47
2021/12/18 13:07:13;;;;;;;10.82;3.10;;;8.60;99.90;;;;;;5049423;28;20058;-47
2021/12/18 13:09:47;;;;;;;9.60;2.42;;;8.60;99.90;;;;;;5049720;28;20041;-49
2021/12/18 13:12:13;;;;;;;7.35;2.78;;;8.60;99.90;;;;;;5049561;28;20487;-49
2021/12/18 13:14:45;;;;;;;7.20;2.75;;;8.60;99.90;;;;;;5058462;28;20471;-48
2021/12/18 13:17:25;;;;;;;6.18;2.40;;;8.60;99.90;;;;;;5052523;28;20084;-48
2021/12/18 13:19:57;;;;;;;12.77;2.95;;;8.60;99.90;;;;;;5049764;28;20068;-52
2021/12/18 13:22:28;;;;;;;10.60;2.60;;;8.60;99.90;;;;;;5049132;28;20051;-48
2021/12/18 13:25:11;;;;;;;8.63;3.17;;;8.60;99.90;;;;;;5051342;28;20071;-48
2021/12/18 13:27:39;;;;;;;8.70;2.70;;;8.60;99.90;;;;;;5049529;28;20041;-49
2021/12/18 13:30:24;;;;;;;15.10;3.38;;;8.50;99.90;;;;;;5061634;28;20541;-49
2021/12/18 13:33:02;;;;;;;6.93;2.40;;;8.50;99.90;;;;;;5041952;28;20134;-48
2021/12/18 13:35:30;;;;;;;8.65;2.35;;;8.50;99.90;;;;;;5047436;28;20223;-47
2021/12/18 13:38:11;;;;;;;9.70;2.95;;;8.50;99.90;;;;;;5050754;28;20131;-48
2021/12/18 13:40:47;;;;;;;8.00;2.72;;;8.50;99.90;;;;;;5059729;28;20390;-48
2021/12/18 13:43:19;;;;;;;6.78;2.22;;;8.40;99.90;;;;;;5051830;28;20586;-48
2021/12/18 13:46:05;;;;;;;8.15;2.50;;;8.40;99.90;;;;;;5059536;28;20052;-48
2021/12/18 13:48:36;;;;;;;9.18;2.67;;;8.40;99.90;;;;;;5053102;28;20390;-47
2021/12/18 13:51:07;;;;;;;10.65;2.90;;;8.40;99.90;;;;;;5064911;28;20132;-49
2021/12/18 13:53:35;;;;;;;8.25;2.13;;;8.30;99.90;;;;;;5068205;28;20363;-47
2021/12/18 13:56:07;;;;;;;6.40;2.22;;;8.30;99.90;;;;;;5069075;28;20139;-49